KOKK/OKK METAR and TAF weather

Enter ICAO airport designator
Station Type Date Time Source
KOKK METAR 2018/12/11 17:56 UTC NOAA

KOKK 111756Z AUTO 23014KT 10SM CLR 03/M03 A3005 RMK AO2 SLP187 T00281033 10028 21061 58021


Station Type Date Time Source
KOKK Decoded METAR 2018/12/11 17:56 UTC NOAA

Kokomo, Kokomo Municipal Airport, IN, United States (KOKK) 40-32N 086-04W
Dec 11, 2018 - 12:56 PM EST / 2018.12.11 1756 UTC
Wind: from the SW (230 degrees) at 16 MPH (14 KT):0
Visibility: 10 mile(s):0
Sky conditions: clear
Temperature: 37.0 F (2.8 C)
Dew Point: 26.1 F (-3.3 C)
Relative Humidity: 64%
Pressure (altimeter): 30.05 in. Hg (1017 hPa)
Pressure tendency: 0.06 inches (2.1 hPa) lower than three hours ago
ob: KOKK 111756Z AUTO 23014KT 10SM CLR 03/M03 A3005 RMK AO2 SLP187 T00281033 10028 21061 58021
cycle: 18

Station Type Date Time Source
KOKK TAF UTC NOAA

Error!


Example: see airport list